Terminal Aerodrome Forecast
Issued by NWS

Home | Current Version | Previous Version | Text Only | Print | Product List | Glossary On
Versions: 1 2 3 4 5 6 7 8 9 10 11 12 13 14
317
FTUS45 KRIW 161120
TAFCPR
TAF
KCPR 161120Z 1612/1712 21022G32KT P6SM FEW120 BKN200
     FM161600 23028G40KT P6SM SCT120 BKN150
     FM170200 22020G30KT P6SM SCT080 BKN120=

USA.gov is the U.S. government's official web portal to all federal, state and local government web resources and services.